createdAt,value
2018-12-01T00:00:30.364Z,8.01
2018-12-01T00:01:30.346Z,8.10
2018-12-01T00:02:30.334Z,8.01
2018-12-01T00:03:30.321Z,8.03
2018-12-01T00:04:30.309Z,8.09
2018-12-01T00:05:30.297Z,8.09
2018-12-01T00:06:30.286Z,8.18
2018-12-01T00:07:30.275Z,8.10
2018-12-01T00:08:30.262Z,8.03
2018-12-01T00:09:30.499Z,8.05
2018-12-01T00:10:30.236Z,7.98
2018-12-01T00:11:30.223Z,8.03
2018-12-01T00:12:30.211Z,8.15
2018-12-01T00:13:30.200Z,8.09
2018-12-01T00:14:30.237Z,8.13
2018-12-01T00:15:30.174Z,8.12
2018-12-01T00:16:30.162Z,8.05
2018-12-01T00:17:30.151Z,8.15
2018-12-01T00:18:30.138Z,8.19
2018-12-01T00:19:30.125Z,8.09
2018-12-01T00:20:30.113Z,8.09
2018-12-01T00:21:30.101Z,8.01
2018-12-01T00:22:30.090Z,7.98
2018-12-01T00:23:30.076Z,8.05
2018-12-01T00:24:30.064Z,8.01
2018-12-01T00:25:30.052Z,8.01
2018-12-01T00:26:30.040Z,8.05
2018-12-01T00:27:30.026Z,8.03
2018-12-01T00:28:30.015Z,8.08
2018-12-01T00:29:30.002Z,8.00
2018-12-01T00:30:29.992Z,8.03
2018-12-01T00:31:29.978Z,8.03
2018-12-01T00:32:29.966Z,8.00
2018-12-01T00:33:29.953Z,8.05
2018-12-01T00:34:29.941Z,7.98
2018-12-01T00:35:29.931Z,7.94
2018-12-01T00:36:29.916Z,7.80
2018-12-01T00:37:29.904Z,7.87
2018-12-01T00:38:29.896Z,7.87
2018-12-01T00:39:30.082Z,7.87
2018-12-01T00:40:29.869Z,7.88
2018-12-01T00:41:29.856Z,7.76
2018-12-01T00:42:29.843Z,7.79
2018-12-01T00:43:29.830Z,7.85
2018-12-01T00:44:29.818Z,7.80
2018-12-01T00:45:29.808Z,7.75
2018-12-01T00:46:29.794Z,7.80
2018-12-01T00:47:29.784Z,7.85
2018-12-01T00:48:29.770Z,7.83
2018-12-01T00:49:29.758Z,7.85
2018-12-01T00:50:29.747Z,7.82
2018-12-01T00:51:29.732Z,7.80
2018-12-01T00:52:29.721Z,7.87
2018-12-01T00:53:29.711Z,7.80
2018-12-01T00:54:29.696Z,7.76
2018-12-01T00:55:29.682Z,7.83
2018-12-01T00:56:29.672Z,7.90
2018-12-01T00:57:29.659Z,7.80
2018-12-01T00:58:29.648Z,7.87
2018-12-01T00:59:29.634Z,7.82
2018-12-01T01:00:29.623Z,7.87
2018-12-01T01:01:29.609Z,7.82
2018-12-01T01:02:29.599Z,7.80
2018-12-01T01:03:29.584Z,7.82
2018-12-01T01:04:29.572Z,7.83
2018-12-01T01:05:29.560Z,7.88
2018-12-01T01:06:29.548Z,7.85
2018-12-01T01:07:29.535Z,7.91
2018-12-01T01:08:29.525Z,7.79
2018-12-01T01:09:29.510Z,7.80
2018-12-01T01:10:29.751Z,7.79
2018-12-01T01:11:29.489Z,7.85
2018-12-01T01:12:30.625Z,7.73
2018-12-01T01:13:29.461Z,7.85
2018-12-01T01:14:29.449Z,7.79
2018-12-01T01:15:29.488Z,7.79
2018-12-01T01:16:29.423Z,7.75
2018-12-01T01:17:29.417Z,7.90
2018-12-01T01:18:29.399Z,7.87
2018-12-01T01:19:29.386Z,7.80
2018-12-01T01:20:29.374Z,7.85
2018-12-01T01:21:29.362Z,7.87
2018-12-01T01:22:29.350Z,7.85
2018-12-01T01:23:29.337Z,7.87
2018-12-01T01:24:29.324Z,7.90
2018-12-01T01:25:29.313Z,7.76
2018-12-01T01:26:29.301Z,7.82
2018-12-01T01:27:29.287Z,7.93
2018-12-01T01:28:29.279Z,7.80
2018-12-01T01:29:29.263Z,7.76
2018-12-01T01:30:29.250Z,7.82
2018-12-01T01:31:29.237Z,7.79
2018-12-01T01:32:29.230Z,7.77
2018-12-01T01:33:29.221Z,7.83
2018-12-01T01:34:29.200Z,7.79
2018-12-01T01:35:29.287Z,7.79
2018-12-01T01:36:29.175Z,7.77
2018-12-01T01:37:29.163Z,7.79
2018-12-01T01:38:29.152Z,7.66
2018-12-01T01:39:29.140Z,7.70
2018-12-01T01:40:29.126Z,7.67
2018-12-01T01:41:29.114Z,7.66
2018-12-01T01:42:29.101Z,7.54
2018-12-01T01:43:29.089Z,7.67
2018-12-01T01:44:29.079Z,7.69
2018-12-01T01:45:29.064Z,7.60
2018-12-01T01:46:29.052Z,7.54
2018-12-01T01:47:29.038Z,7.56
2018-12-01T01:48:29.027Z,7.56
2018-12-01T01:49:29.014Z,7.56
2018-12-01T01:50:29.002Z,7.54
2018-12-01T01:51:28.994Z,7.57
2018-12-01T01:52:28.977Z,7.53
2018-12-01T01:53:28.967Z,7.48
2018-12-01T01:54:28.953Z,7.56
2018-12-01T01:55:28.940Z,7.60
2018-12-01T01:56:28.927Z,7.50
2018-12-01T01:57:28.915Z,7.58
2018-12-01T01:58:28.903Z,7.56
2018-12-01T01:59:28.890Z,7.53
2018-12-01T02:00:28.880Z,7.56
2018-12-01T02:01:28.916Z,7.67
2018-12-01T02:02:28.854Z,7.61
2018-12-01T02:03:28.840Z,7.54
2018-12-01T02:04:28.828Z,7.57
2018-12-01T02:05:28.818Z,7.51
2018-12-01T02:06:28.804Z,7.51
2018-12-01T02:07:28.790Z,7.51
2018-12-01T02:08:28.778Z,7.54
2018-12-01T02:09:28.766Z,7.48
2018-12-01T02:10:28.753Z,7.58
2018-12-01T02:11:28.742Z,7.51
2018-12-01T02:12:28.730Z,7.61
2018-12-01T02:13:28.718Z,7.53
2018-12-01T02:14:28.705Z,7.57
2018-12-01T02:15:28.689Z,7.51
2018-12-01T02:16:28.727Z,7.47
2018-12-01T02:17:28.665Z,7.51
2018-12-01T02:18:28.653Z,7.56
2018-12-01T02:19:28.639Z,7.48
2018-12-01T02:20:28.628Z,7.48
2018-12-01T02:21:28.614Z,7.48
2018-12-01T02:22:28.603Z,7.47
2018-12-01T02:23:28.589Z,7.43
2018-12-01T02:24:28.576Z,7.48
2018-12-01T02:25:28.564Z,7.43
2018-12-01T02:26:28.552Z,7.50
2018-12-01T02:27:28.538Z,7.38
2018-12-01T02:28:28.526Z,7.36
2018-12-01T02:29:28.566Z,7.36
2018-12-01T02:30:28.502Z,7.39
2018-12-01T02:31:28.492Z,7.40
2018-12-01T02:32:28.475Z,7.40
2018-12-01T02:33:28.470Z,7.35
2018-12-01T02:34:28.456Z,7.38
2018-12-01T02:35:28.438Z,7.32
2018-12-01T02:36:28.427Z,7.33
2018-12-01T02:37:28.413Z,7.25
2018-12-01T02:38:28.400Z,7.29
2018-12-01T02:39:28.389Z,7.33
2018-12-01T02:40:28.375Z,7.23
2018-12-01T02:41:28.363Z,7.32
2018-12-01T02:42:28.349Z,7.32
2018-12-01T02:43:28.337Z,7.24
2018-12-01T02:44:28.323Z,7.23
2018-12-01T02:45:28.311Z,7.25
2018-12-01T02:46:28.349Z,7.23
2018-12-01T02:47:28.285Z,7.31
2018-12-01T02:48:28.274Z,7.31
2018-12-01T02:49:28.260Z,7.25
2018-12-01T02:50:28.252Z,7.31
2018-12-01T02:51:28.241Z,7.23
2018-12-01T02:52:28.230Z,7.23
2018-12-01T02:53:28.220Z,7.23
2018-12-01T02:54:28.198Z,7.31
2018-12-01T02:55:28.190Z,7.25
2018-12-01T02:56:28.171Z,7.36
2018-12-01T02:57:28.159Z,7.18
2018-12-01T02:58:28.147Z,7.35
2018-12-01T02:59:28.134Z,7.25
2018-12-01T03:00:28.121Z,7.32
2018-12-01T03:01:28.108Z,7.36
2018-12-01T03:02:28.096Z,7.48
2018-12-01T03:03:28.082Z,7.51
2018-12-01T03:04:28.069Z,7.57
2018-12-01T03:05:28.057Z,7.54
2018-12-01T03:06:28.048Z,7.51
2018-12-01T03:07:28.084Z,7.47
2018-12-01T03:08:28.020Z,7.50
2018-12-01T03:09:28.006Z,7.50
2018-12-01T03:10:27.994Z,7.50
2018-12-01T03:11:27.980Z,7.50
2018-12-01T03:12:27.972Z,7.50
2018-12-01T03:13:27.957Z,7.45
2018-12-01T03:14:27.943Z,7.39
2018-12-01T03:15:27.933Z,7.39
2018-12-01T03:16:27.918Z,7.32
2018-12-01T03:17:27.905Z,7.40
2018-12-01T03:18:27.945Z,7.29
2018-12-01T03:19:27.880Z,7.42
2018-12-01T03:20:27.871Z,7.38
2018-12-01T03:21:27.855Z,7.31
2018-12-01T03:22:28.045Z,7.36
2018-12-01T03:23:27.836Z,7.35
2018-12-01T03:24:27.817Z,7.32
2018-12-01T03:25:27.804Z,7.33
2018-12-01T03:26:27.792Z,7.39
2018-12-01T03:27:27.779Z,7.38
2018-12-01T03:28:27.770Z,7.38
2018-12-01T03:29:27.753Z,7.38
2018-12-01T03:30:27.742Z,7.38
2018-12-01T03:31:27.728Z,7.36
2018-12-01T03:32:27.717Z,7.24
2018-12-01T03:33:27.803Z,7.42
2018-12-01T03:34:27.690Z,7.35
2018-12-01T03:35:27.677Z,7.35
2018-12-01T03:36:27.664Z,7.32
2018-12-01T03:37:27.651Z,7.36
2018-12-01T03:38:27.847Z,7.36
2018-12-01T03:39:27.628Z,7.39
2018-12-01T03:40:27.613Z,7.25
2018-12-01T03:41:27.600Z,7.33
2018-12-01T03:42:27.588Z,7.33
2018-12-01T03:43:27.575Z,7.25
2018-12-01T03:44:27.569Z,7.25
2018-12-01T03:45:27.552Z,7.31
2018-12-01T03:46:27.538Z,7.25
2018-12-01T03:47:27.523Z,7.28
2018-12-01T03:48:27.510Z,7.33
2018-12-01T03:49:27.498Z,7.29
2018-12-01T03:50:27.485Z,7.25
2018-12-01T03:51:27.472Z,7.24
2018-12-01T03:52:27.460Z,7.32
2018-12-01T03:53:27.448Z,7.21
2018-12-01T03:54:27.436Z,7.38
2018-12-01T03:55:27.424Z,7.28
2018-12-01T03:56:27.414Z,7.35
2018-12-01T03:57:27.397Z,7.24
2018-12-01T03:58:27.383Z,7.28
2018-12-01T03:59:27.370Z,7.24
2018-12-01T04:00:27.358Z,7.23
2018-12-01T04:01:27.347Z,7.28
2018-12-01T04:02:27.333Z,7.23
2018-12-01T04:03:27.321Z,7.18
2018-12-01T04:04:27.307Z,7.20
2018-12-01T04:05:27.295Z,7.21
2018-12-01T04:06:27.282Z,7.21
2018-12-01T04:07:27.269Z,7.21
2018-12-01T04:08:27.258Z,7.17
2018-12-01T04:09:27.244Z,7.28
2018-12-01T04:10:27.231Z,7.20
2018-12-01T04:11:27.218Z,7.18
2018-12-01T04:12:27.205Z,7.21
2018-12-01T04:13:27.198Z,7.18
2018-12-01T04:14:27.181Z,7.21
2018-12-01T04:15:27.169Z,7.21
2018-12-01T04:16:27.155Z,7.20
2018-12-01T04:17:27.147Z,7.20
2018-12-01T04:18:27.134Z,7.18
2018-12-01T04:19:27.367Z,7.17
2018-12-01T04:20:27.106Z,7.23
2018-12-01T04:21:27.093Z,7.17
2018-12-01T04:22:27.080Z,7.15
2018-12-01T04:23:27.067Z,7.18
2018-12-01T04:24:27.054Z,7.17
2018-12-01T04:25:27.042Z,7.18
2018-12-01T04:26:27.029Z,7.17
2018-12-01T04:27:27.016Z,7.21
2018-12-01T04:28:27.004Z,7.21
2018-12-01T04:29:26.992Z,7.18
2018-12-01T04:30:26.982Z,7.23
2018-12-01T04:31:26.967Z,7.07
2018-12-01T04:32:26.953Z,7.20
2018-12-01T04:33:26.941Z,7.21
2018-12-01T04:34:26.934Z,7.21
2018-12-01T04:35:26.915Z,7.24
2018-12-01T04:36:26.903Z,7.17
2018-12-01T04:37:26.890Z,7.21
2018-12-01T04:38:26.878Z,7.23
2018-12-01T04:39:26.865Z,7.21
2018-12-01T04:40:26.852Z,7.18
2018-12-01T04:41:26.840Z,7.21
2018-12-01T04:42:26.828Z,7.21
2018-12-01T04:43:26.813Z,7.21
2018-12-01T04:44:26.801Z,7.15
2018-12-01T04:45:26.792Z,7.21
2018-12-01T04:46:26.818Z,7.18
2018-12-01T04:47:26.766Z,7.11
2018-12-01T04:48:26.750Z,7.05
2018-12-01T04:49:26.737Z,7.11
2018-12-01T04:50:26.725Z,7.18
2018-12-01T04:51:26.716Z,7.20
2018-12-01T04:52:26.700Z,7.11
2018-12-01T04:53:26.688Z,7.13
2018-12-01T04:54:26.674Z,7.05
2018-12-01T04:55:26.661Z,7.00
2018-12-01T04:56:26.648Z,7.10
2018-12-01T04:57:26.637Z,7.14
2018-12-01T04:58:26.624Z,7.10
2018-12-01T04:59:26.610Z,7.07
2018-12-01T05:00:26.598Z,6.99
2018-12-01T05:01:26.589Z,6.97
2018-12-01T05:02:26.578Z,6.95
2018-12-01T05:03:26.563Z,6.99
2018-12-01T05:04:26.547Z,7.00
2018-12-01T05:05:26.535Z,7.00
2018-12-01T05:06:26.522Z,6.99
2018-12-01T05:07:26.508Z,7.10
2018-12-01T05:08:26.506Z,7.00
2018-12-01T05:09:26.484Z,6.99
2018-12-01T05:10:26.471Z,7.00
2018-12-01T05:11:26.467Z,7.06
2018-12-01T05:12:26.445Z,7.00
2018-12-01T05:13:26.433Z,7.02
2018-12-01T05:14:26.420Z,7.06
2018-12-01T05:15:26.406Z,7.10
2018-12-01T05:16:26.394Z,7.10
2018-12-01T05:17:26.382Z,7.03
2018-12-01T05:18:26.369Z,6.99
2018-12-01T05:19:26.558Z,7.13
2018-12-01T05:20:26.343Z,7.13
2018-12-01T05:21:26.330Z,7.10
2018-12-01T05:22:26.318Z,7.14
2018-12-01T05:23:26.304Z,7.14
2018-12-01T05:24:26.293Z,7.13
2018-12-01T05:25:26.283Z,7.07
2018-12-01T05:26:26.267Z,7.07
2018-12-01T05:27:26.254Z,7.11
2018-12-01T05:28:26.243Z,7.17
2018-12-01T05:29:26.234Z,7.17
2018-12-01T05:30:26.217Z,7.07
2018-12-01T05:31:26.204Z,7.07
2018-12-01T05:32:26.191Z,7.11
2018-12-01T05:33:26.180Z,7.18
2018-12-01T05:34:26.168Z,7.20
2018-12-01T05:35:26.154Z,7.17
2018-12-01T05:36:26.142Z,7.17
2018-12-01T05:37:26.133Z,7.17
2018-12-01T05:38:26.117Z,7.21
2018-12-01T05:39:26.104Z,7.13
2018-12-01T05:40:26.091Z,7.24
2018-12-01T05:41:26.086Z,7.21
2018-12-01T05:42:26.067Z,7.21
2018-12-01T05:43:26.053Z,7.20
2018-12-01T05:44:26.046Z,7.25
2018-12-01T05:45:26.030Z,7.24
2018-12-01T05:46:26.017Z,7.20
2018-12-01T05:47:26.005Z,7.18
2018-12-01T05:48:25.992Z,7.24
2018-12-01T05:49:25.980Z,7.20
2018-12-01T05:50:25.967Z,7.31
2018-12-01T05:51:25.954Z,7.24
2018-12-01T05:52:25.942Z,7.23
2018-12-01T05:53:25.930Z,7.28
2018-12-01T05:54:25.918Z,7.39
2018-12-01T05:55:25.904Z,7.39
2018-12-01T05:56:25.893Z,7.36
2018-12-01T05:57:25.890Z,7.33
2018-12-01T05:58:25.870Z,7.40
2018-12-01T05:59:25.855Z,7.31
2018-12-01T06:00:25.844Z,7.33
2018-12-01T06:01:25.831Z,7.38
2018-12-01T06:02:25.819Z,7.31
2018-12-01T06:03:25.807Z,7.35
2018-12-01T06:04:25.794Z,7.36
2018-12-01T06:05:25.782Z,7.33
2018-12-01T06:06:25.769Z,7.36
2018-12-01T06:07:25.757Z,7.38
2018-12-01T06:08:25.748Z,7.40
2018-12-01T06:09:25.733Z,7.38
2018-12-01T06:10:25.721Z,7.36
2018-12-01T06:11:25.758Z,7.36
2018-12-01T06:12:25.696Z,7.36
2018-12-01T06:13:25.887Z,7.40
2018-12-01T06:14:25.672Z,7.39
2018-12-01T06:15:25.659Z,7.38
2018-12-01T06:16:25.647Z,7.35
2018-12-01T06:17:25.639Z,7.38
2018-12-01T06:18:25.623Z,7.38
2018-12-01T06:19:25.611Z,7.48
2018-12-01T06:20:25.601Z,7.45
2018-12-01T06:21:25.587Z,7.48
2018-12-01T06:22:25.574Z,7.50
2018-12-01T06:23:25.563Z,7.48
2018-12-01T06:24:25.555Z,7.53
2018-12-01T06:25:25.539Z,7.51
2018-12-01T06:26:25.526Z,7.53
2018-12-01T06:27:25.513Z,7.56
2018-12-01T06:28:25.502Z,7.48
2018-12-01T06:29:25.491Z,7.50
2018-12-01T06:30:25.478Z,7.56
2018-12-01T06:31:25.515Z,7.51
2018-12-01T06:32:25.453Z,7.53
2018-12-01T06:33:25.442Z,7.53
2018-12-01T06:34:25.433Z,7.56
2018-12-01T06:35:25.417Z,7.56
2018-12-01T06:36:25.405Z,7.54
2018-12-01T06:37:25.394Z,7.48
2018-12-01T06:38:25.383Z,7.54
2018-12-01T06:39:25.371Z,7.56
2018-12-01T06:40:25.363Z,7.57
2018-12-01T06:41:25.346Z,7.56
2018-12-01T06:42:25.333Z,7.56
2018-12-01T06:43:25.322Z,7.54
2018-12-01T06:44:25.310Z,7.57
2018-12-01T06:45:25.298Z,7.56
2018-12-01T06:46:25.286Z,7.51
2018-12-01T06:47:25.481Z,7.53
2018-12-01T06:48:25.262Z,7.54
2018-12-01T06:49:25.251Z,7.58
2018-12-01T06:50:25.241Z,7.54
2018-12-01T06:51:25.226Z,7.56
2018-12-01T06:52:25.214Z,7.50
2018-12-01T06:53:25.203Z,7.56
2018-12-01T06:54:25.193Z,7.53
2018-12-01T06:55:25.179Z,7.56
2018-12-01T06:57:25.159Z,7.66
2018-12-01T06:58:25.144Z,7.70
2018-12-01T06:59:25.131Z,7.51
2018-12-01T07:00:25.126Z,7.54
2018-12-01T07:01:25.115Z,7.56
2018-12-01T07:02:25.095Z,7.47
2018-12-01T07:03:25.083Z,7.54
2018-12-01T07:04:25.071Z,7.66
2018-12-01T07:05:25.061Z,7.67
2018-12-01T07:06:25.053Z,7.66
2018-12-01T07:07:25.035Z,7.69
2018-12-01T07:08:25.024Z,7.72
2018-12-01T07:09:25.013Z,7.61
2018-12-01T07:10:25.002Z,7.67
2018-12-01T07:11:24.992Z,7.63
2018-12-01T07:12:24.977Z,7.63
2018-12-01T07:13:24.965Z,7.69
2018-12-01T07:14:24.952Z,7.73
2018-12-01T07:15:24.944Z,7.69
2018-12-01T07:16:24.927Z,7.70
2018-12-01T07:17:24.916Z,7.67
2018-12-01T07:18:24.907Z,7.67
2018-12-01T07:19:24.892Z,7.66
2018-12-01T07:20:24.880Z,7.73
2018-12-01T07:21:24.872Z,7.67
2018-12-01T07:22:24.857Z,7.61
2018-12-01T07:23:24.844Z,7.63
2018-12-01T07:24:24.833Z,7.69
2018-12-01T07:25:24.822Z,7.72
2018-12-01T07:26:24.810Z,7.82
2018-12-01T07:27:24.797Z,7.87
2018-12-01T07:28:24.790Z,7.75
2018-12-01T07:29:24.774Z,7.72
2018-12-01T07:30:24.762Z,7.76
2018-12-01T07:31:24.750Z,7.67
2018-12-01T07:32:24.738Z,7.82
2018-12-01T07:33:24.727Z,7.85
2018-12-01T07:34:24.721Z,7.76
2018-12-01T07:35:24.702Z,7.70
2018-12-01T07:36:24.693Z,7.79
2018-12-01T07:37:24.737Z,7.76
2018-12-01T07:38:24.668Z,7.77
2018-12-01T07:39:24.659Z,7.79
2018-12-01T07:40:24.645Z,7.79
2018-12-01T07:41:24.633Z,7.79
2018-12-01T07:42:24.621Z,7.77
2018-12-01T07:43:24.614Z,7.79
2018-12-01T07:44:24.800Z,7.79
2018-12-01T07:45:24.593Z,7.82
2018-12-01T07:46:24.575Z,7.88
2018-12-01T07:47:24.563Z,7.79
2018-12-01T07:48:24.552Z,7.90
2018-12-01T07:49:24.541Z,7.85
2018-12-01T07:50:24.731Z,7.83
2018-12-01T07:51:24.517Z,7.88
2018-12-01T07:52:24.511Z,7.90
2018-12-01T07:53:24.494Z,7.76
2018-12-01T07:54:24.690Z,7.79
2018-12-01T07:55:24.471Z,7.76
2018-12-01T07:56:24.462Z,7.76
2018-12-01T07:57:24.452Z,7.83
2018-12-01T07:58:24.439Z,7.93
2018-12-01T07:59:24.425Z,7.94
2018-12-01T08:00:24.414Z,7.97
2018-12-01T08:01:24.404Z,7.94
2018-12-01T08:02:24.390Z,7.94
2018-12-01T08:03:24.381Z,7.95
2018-12-01T08:04:24.366Z,7.87
2018-12-01T08:05:24.355Z,7.80
2018-12-01T08:06:24.344Z,7.82
2018-12-01T08:07:24.331Z,7.85
2018-12-01T08:08:24.319Z,7.88
2018-12-01T08:09:24.308Z,7.83
2018-12-01T08:10:24.301Z,7.75
2018-12-01T08:11:24.284Z,7.79
2018-12-01T08:12:24.273Z,7.70
2018-12-01T08:13:24.262Z,7.76
2018-12-01T08:14:24.254Z,7.73
2018-12-01T08:15:24.238Z,7.70
2018-12-01T08:16:24.227Z,7.63
2018-12-01T08:17:24.220Z,7.76
2018-12-01T08:18:24.205Z,7.77
2018-12-01T08:19:24.192Z,7.73
2018-12-01T08:20:24.182Z,7.77
2018-12-01T08:21:24.170Z,7.76
2018-12-01T08:22:24.158Z,7.80
2018-12-01T08:23:24.151Z,7.87
2018-12-01T08:24:24.136Z,7.88
2018-12-01T08:25:24.124Z,7.90
2018-12-01T08:26:24.115Z,8.01
2018-12-01T08:27:24.100Z,7.93
2018-12-01T08:28:24.091Z,7.97
2018-12-01T08:29:24.079Z,8.00
2018-12-01T08:30:24.067Z,8.00
2018-12-01T08:31:24.064Z,8.03
2018-12-01T08:32:24.044Z,8.16
2018-12-01T08:33:24.035Z,8.23
2018-12-01T08:34:24.027Z,8.19
2018-12-01T08:35:24.010Z,8.27
2018-12-01T08:36:24.003Z,8.30
2018-12-01T08:37:23.987Z,8.34
2018-12-01T08:38:23.976Z,8.31
2018-12-01T08:39:23.964Z,8.27
2018-12-01T08:40:23.957Z,8.37
2018-12-01T08:41:23.942Z,8.38
2018-12-01T08:42:23.931Z,8.44
2018-12-01T08:43:23.921Z,8.52
2018-12-01T08:44:23.912Z,8.49
2018-12-01T08:45:23.896Z,8.55
2018-12-01T08:46:23.889Z,8.51
2018-12-01T08:47:23.878Z,8.52
2018-12-01T08:48:23.867Z,8.58
2018-12-01T08:49:24.054Z,8.58
2018-12-01T08:50:23.841Z,8.52
2018-12-01T08:51:23.829Z,8.56
2018-12-01T08:52:23.822Z,8.56
2018-12-01T08:53:23.808Z,8.63
2018-12-01T08:54:23.803Z,8.56
2018-12-01T08:55:23.794Z,8.60
2018-12-01T08:56:23.776Z,8.53
2018-12-01T08:57:23.763Z,8.51
2018-12-01T08:58:23.758Z,8.55
2018-12-01T08:59:23.743Z,8.60
2018-12-01T09:00:23.733Z,8.58
2018-12-01T09:01:23.721Z,8.52
2018-12-01T09:02:23.710Z,8.55
2018-12-01T09:03:23.696Z,8.60
2018-12-01T09:04:23.690Z,8.58
2018-12-01T09:05:23.675Z,8.53
2018-12-01T09:06:23.663Z,8.55
2018-12-01T09:07:23.654Z,8.52
2018-12-01T09:08:23.641Z,8.55
2018-12-01T09:09:23.634Z,8.53
2018-12-01T09:10:23.619Z,8.51
2018-12-01T09:11:23.606Z,8.55
2018-12-01T09:12:23.597Z,8.51
2018-12-01T09:13:23.640Z,8.51
2018-12-01T09:14:23.574Z,8.52
2018-12-01T09:15:23.561Z,8.55
2018-12-01T09:16:23.552Z,8.56
2018-12-01T09:17:23.542Z,8.53
2018-12-01T09:18:23.528Z,8.53
2018-12-01T09:19:23.518Z,8.49
2018-12-01T09:20:23.509Z,8.48
2018-12-01T09:21:23.494Z,8.44
2018-12-01T09:22:23.484Z,8.46
2018-12-01T09:23:23.471Z,8.51
2018-12-01T09:24:23.464Z,8.51
2018-12-01T09:25:23.449Z,8.51
2018-12-01T09:26:23.440Z,8.56
2018-12-01T09:27:23.428Z,8.53
2018-12-01T09:28:23.467Z,8.56
2018-12-01T09:29:23.404Z,8.63
2018-12-01T09:30:23.393Z,8.60
2018-12-01T09:31:23.385Z,8.66
2018-12-01T09:32:23.370Z,8.64
2018-12-01T09:33:23.359Z,8.67
2018-12-01T09:34:23.348Z,8.69
2018-12-01T09:35:23.339Z,8.73
2018-12-01T09:36:23.323Z,8.87
2018-12-01T09:37:23.313Z,8.82
2018-12-01T09:38:24.180Z,8.89
2018-12-01T09:39:23.290Z,8.91
2018-12-01T09:40:23.278Z,8.95
2018-12-01T09:41:23.268Z,9.08
2018-12-01T09:42:24.881Z,9.06
2018-12-01T09:43:23.294Z,9.19
2018-12-01T09:44:23.233Z,9.26
2018-12-01T09:45:23.222Z,9.26
2018-12-01T09:46:23.216Z,9.40
2018-12-01T09:47:23.199Z,9.55
2018-12-01T09:48:23.188Z,9.55
2018-12-01T09:49:23.177Z,9.64
2018-12-01T09:50:23.170Z,9.76
2018-12-01T09:51:23.155Z,9.87
2018-12-01T09:52:23.146Z,9.91
2018-12-01T09:53:23.135Z,9.94
2018-12-01T09:54:23.129Z,9.97
2018-12-01T09:55:23.114Z,9.98
2018-12-01T09:56:23.103Z,9.95
2018-12-01T09:57:23.092Z,9.97
2018-12-01T09:58:23.139Z,9.94
2018-12-01T09:59:23.076Z,9.87
2018-12-01T10:00:23.061Z,9.82
2018-12-01T10:01:23.055Z,9.77
2018-12-01T10:02:23.041Z,9.69
2018-12-01T10:03:23.029Z,9.68
2018-12-01T10:04:23.019Z,9.65
2018-12-01T10:05:23.016Z,9.68
2018-12-01T10:06:23.003Z,9.62
2018-12-01T10:07:22.988Z,9.51
2018-12-01T10:08:22.977Z,9.59
2018-12-01T10:09:22.972Z,9.50
2018-12-01T10:10:22.957Z,9.56
2018-12-01T10:11:22.945Z,9.59
2018-12-01T10:12:22.940Z,9.54
2018-12-01T10:13:22.925Z,9.58
2018-12-01T10:14:22.916Z,9.61
2018-12-01T10:15:23.859Z,9.66
2018-12-01T10:16:22.892Z,9.64
2018-12-01T10:17:22.881Z,9.65
2018-12-01T10:18:22.870Z,9.58
2018-12-01T10:19:22.860Z,9.58
2018-12-01T10:20:22.848Z,9.56
2018-12-01T10:21:22.843Z,9.61
2018-12-01T10:22:22.828Z,9.62
2018-12-01T10:23:22.816Z,9.64
2018-12-01T10:24:22.805Z,9.69
2018-12-01T10:25:22.801Z,9.68
2018-12-01T10:26:22.786Z,9.65
2018-12-01T10:27:22.776Z,9.72
2018-12-01T10:28:22.768Z,9.61
2018-12-01T10:29:22.822Z,9.66
2018-12-01T10:30:22.742Z,9.66
2018-12-01T10:31:22.732Z,9.73
2018-12-01T10:32:22.723Z,9.62
2018-12-01T10:33:22.711Z,9.66
2018-12-01T10:34:22.708Z,9.66
2018-12-01T10:35:22.688Z,9.69
2018-12-01T10:36:22.677Z,9.80
2018-12-01T10:37:22.667Z,9.84
2018-12-01T10:38:22.657Z,9.94
2018-12-01T10:39:22.645Z,9.92
2018-12-01T10:40:22.635Z,9.94
2018-12-01T10:41:22.626Z,9.89
2018-12-01T10:42:22.615Z,9.84
2018-12-01T10:43:22.603Z,9.84
2018-12-01T10:44:22.646Z,9.84
2018-12-01T10:45:22.583Z,9.86
2018-12-01T10:46:22.577Z,9.80
2018-12-01T10:47:22.561Z,9.82
2018-12-01T10:48:22.553Z,9.82
2018-12-01T10:49:22.592Z,9.73
2018-12-01T10:50:22.539Z,9.79
2018-12-01T10:51:22.520Z,9.79
2018-12-01T10:52:22.509Z,9.80
2018-12-01T10:53:22.499Z,9.86
2018-12-01T10:54:22.543Z,9.91
2018-12-01T10:55:22.483Z,9.91
2018-12-01T10:56:22.467Z,9.89
2018-12-01T10:57:22.457Z,9.87
2018-12-01T10:58:22.455Z,9.89
2018-12-01T10:59:22.436Z,9.98
2018-12-01T11:00:22.428Z,10.05
2018-12-01T11:01:22.416Z,10.13
2018-12-01T11:02:22.408Z,10.33
2018-12-01T11:03:22.597Z,10.49
2018-12-01T11:04:22.385Z,10.49
2018-12-01T11:05:22.378Z,10.59
2018-12-01T11:06:22.368Z,10.69
2018-12-01T11:07:22.356Z,10.75
2018-12-01T11:08:22.352Z,10.79
2018-12-01T11:09:22.337Z,10.84
2018-12-01T11:10:22.329Z,11.04
2018-12-01T11:11:22.317Z,10.92
2018-12-01T11:12:22.308Z,11.02
2018-12-01T11:13:22.299Z,10.94
2018-12-01T11:14:22.290Z,10.93
2018-12-01T11:15:22.280Z,10.90
2018-12-01T11:16:22.275Z,10.90
2018-12-01T11:17:22.261Z,10.93
2018-12-01T11:18:22.252Z,10.94
2018-12-01T11:19:22.241Z,10.89
2018-12-01T11:20:22.234Z,10.87
2018-12-01T11:21:22.226Z,10.89
2018-12-01T11:22:22.214Z,10.84
2018-12-01T11:23:22.205Z,10.74
2018-12-01T11:24:22.195Z,10.69
2018-12-01T11:25:22.186Z,10.75
2018-12-01T11:26:22.176Z,10.84
2018-12-01T11:27:22.170Z,10.78
2018-12-01T11:28:22.162Z,10.84
2018-12-01T11:29:22.206Z,10.82
2018-12-01T11:30:22.141Z,10.82
2018-12-01T11:31:22.130Z,10.79
2018-12-01T11:32:22.852Z,10.82
2018-12-01T11:33:22.114Z,10.86
2018-12-01T11:34:22.106Z,10.79
2018-12-01T11:35:22.093Z,10.82
2018-12-01T11:36:22.086Z,10.71
2018-12-01T11:37:22.074Z,10.81
2018-12-01T11:38:22.063Z,10.84
2018-12-01T11:39:22.059Z,10.84
2018-12-01T11:40:22.043Z,10.82
2018-12-01T11:41:22.036Z,10.84
2018-12-01T11:42:22.026Z,10.78
2018-12-01T11:43:22.016Z,10.81
2018-12-01T11:44:22.010Z,10.74
2018-12-01T11:45:21.996Z,10.72
2018-12-01T11:46:22.037Z,10.72
2018-12-01T11:47:21.978Z,10.68
2018-12-01T11:48:21.968Z,10.63
2018-12-01T11:49:21.958Z,10.67
2018-12-01T11:50:21.955Z,10.69
2018-12-01T11:51:21.938Z,10.67
2018-12-01T11:52:21.929Z,10.53
2018-12-01T11:53:21.921Z,10.57
2018-12-01T11:54:21.913Z,10.53
2018-12-01T11:55:21.901Z,10.59
2018-12-01T11:56:21.899Z,10.46
2018-12-01T11:57:21.887Z,10.46
2018-12-01T11:58:21.869Z,10.44
2018-12-01T11:59:21.858Z,10.46
2018-12-01T12:00:21.852Z,10.46
2018-12-01T12:01:21.838Z,10.48
2018-12-01T12:02:21.828Z,10.46
2018-12-01T12:03:21.818Z,10.41
2018-12-01T12:04:21.807Z,10.38
2018-12-01T12:05:21.800Z,10.46
2018-12-01T12:06:21.843Z,10.49
2018-12-01T12:07:21.775Z,10.44
2018-12-01T12:08:21.765Z,10.46
2018-12-01T12:09:21.755Z,10.40
2018-12-01T12:10:21.749Z,10.35
2018-12-01T12:11:21.740Z,10.38
2018-12-01T12:12:21.728Z,10.42
2018-12-01T12:13:21.713Z,10.44
2018-12-01T12:14:21.703Z,10.37
2018-12-01T12:15:21.697Z,10.42
2018-12-01T12:16:21.687Z,10.44
2018-12-01T12:17:21.676Z,10.38
2018-12-01T12:18:21.667Z,10.31
2018-12-01T12:19:21.654Z,10.20
2018-12-01T12:20:21.650Z,10.26
2018-12-01T12:21:21.630Z,10.19
2018-12-01T12:22:21.624Z,10.23
2018-12-01T12:23:21.615Z,10.23
2018-12-01T12:24:21.599Z,10.20
2018-12-01T12:25:21.592Z,10.25
2018-12-01T12:26:21.578Z,10.20
2018-12-01T12:27:21.568Z,10.20
2018-12-01T12:28:21.557Z,10.22
2018-12-01T12:29:21.750Z,10.25
2018-12-01T12:30:25.864Z,10.20
2018-12-01T12:31:21.526Z,10.25
2018-12-01T12:33:21.504Z,10.20
2018-12-01T12:34:21.497Z,10.20
2018-12-01T12:35:21.485Z,10.26
2018-12-01T12:36:21.473Z,10.15
2018-12-01T12:37:21.467Z,10.19
2018-12-01T12:38:21.452Z,10.15
2018-12-01T12:39:21.442Z,10.16
2018-12-01T12:40:21.430Z,10.02
2018-12-01T12:41:21.420Z,10.13
2018-12-01T12:42:21.415Z,10.02
2018-12-01T12:43:21.399Z,9.99
2018-12-01T12:44:21.390Z,10.05
2018-12-01T12:45:21.380Z,10.01
2018-12-01T12:46:21.367Z,10.02
2018-12-01T12:47:21.356Z,10.02
2018-12-01T12:48:21.345Z,9.99
2018-12-01T12:49:21.333Z,10.12
2018-12-01T12:50:21.328Z,10.07
2018-12-01T12:51:21.311Z,9.98
2018-12-01T12:52:21.301Z,9.98
2018-12-01T12:53:21.291Z,9.97
2018-12-01T12:54:21.287Z,10.04
2018-12-01T12:55:21.267Z,10.02
2018-12-01T12:56:21.258Z,9.99
2018-12-01T12:57:21.250Z,9.99
2018-12-01T12:58:21.239Z,10.01
2018-12-01T12:59:21.225Z,10.02
2018-12-01T13:00:21.213Z,10.02
2018-12-01T13:01:21.206Z,9.89
2018-12-01T13:02:21.233Z,9.92
2018-12-01T13:03:21.184Z,9.87
2018-12-01T13:04:21.169Z,9.84
2018-12-01T13:05:21.158Z,9.86
2018-12-01T13:06:21.350Z,9.89
2018-12-01T13:07:21.136Z,9.86
2018-12-01T13:08:21.125Z,9.86
2018-12-01T13:09:21.122Z,9.91
2018-12-01T13:10:21.103Z,9.91
2018-12-01T13:11:21.099Z,9.97
2018-12-01T13:12:21.081Z,9.97
2018-12-01T13:14:21.065Z,9.92
2018-12-01T13:15:21.049Z,9.91
2018-12-01T13:16:21.039Z,9.89
2018-12-01T13:17:21.031Z,9.89